sensor_id;sensor_type;location;lat;lon;timestamp;P1;P2;P0
73241;PMS5003;65659;49.234;-2.094;2024-02-16T00:02:06;15;15;
73241;PMS5003;65659;49.234;-2.094;2024-02-16T00:04:32;16;16;
73241;PMS5003;65659;49.234;-2.094;2024-02-16T00:06:58;17;16;
73241;PMS5003;65659;49.234;-2.094;2024-02-16T00:09:23;16;16;
73241;PMS5003;65659;49.234;-2.094;2024-02-16T00:11:48;21;20;
73241;PMS5003;65659;49.234;-2.094;2024-02-16T00:14:14;14;14;
73241;PMS5003;65659;49.234;-2.094;2024-02-16T00:16:39;14;13;
73241;PMS5003;65659;49.234;-2.094;2024-02-16T00:19:05;12;12;
73241;PMS5003;65659;49.234;-2.094;2024-02-16T00:21:30;17;17;
73241;PMS5003;65659;49.234;-2.094;2024-02-16T00:23:56;15;14;
73241;PMS5003;65659;49.234;-2.094;2024-02-16T00:26:22;15;14;
73241;PMS5003;65659;49.234;-2.094;2024-02-16T00:28:48;15;13;
73241;PMS5003;65659;49.234;-2.094;2024-02-16T00:31:13;17;17;
73241;PMS5003;65659;49.234;-2.094;2024-02-16T00:33:39;11;11;
73241;PMS5003;65659;49.234;-2.094;2024-02-16T00:36:05;17;15;
73241;PMS5003;65659;49.234;-2.094;2024-02-16T00:38:30;9;9;
73241;PMS5003;65659;49.234;-2.094;2024-02-16T00:40:56;11;10;
73241;PMS5003;65659;49.234;-2.094;2024-02-16T00:43:22;9;9;
73241;PMS5003;65659;49.234;-2.094;2024-02-16T00:45:47;10;9;
73241;PMS5003;65659;49.234;-2.094;2024-02-16T00:48:13;10;9;
73241;PMS5003;65659;49.234;-2.094;2024-02-16T00:50:39;9;9;
73241;PMS5003;65659;49.234;-2.094;2024-02-16T00:53:05;8;8;
73241;PMS5003;65659;49.234;-2.094;2024-02-16T00:55:30;11;11;
73241;PMS5003;65659;49.234;-2.094;2024-02-16T00:57:56;7;7;
73241;PMS5003;65659;49.234;-2.094;2024-02-16T01:00:22;9;9;
73241;PMS5003;65659;49.234;-2.094;2024-02-16T01:02:48;9;9;
73241;PMS5003;65659;49.234;-2.094;2024-02-16T01:05:13;12;12;
73241;PMS5003;65659;49.234;-2.094;2024-02-16T01:07:39;11;10;
73241;PMS5003;65659;49.234;-2.094;2024-02-16T01:10:05;11;10;
73241;PMS5003;65659;49.234;-2.094;2024-02-16T01:12:30;10;10;
73241;PMS5003;65659;49.234;-2.094;2024-02-16T01:14:55;10;10;
73241;PMS5003;65659;49.234;-2.094;2024-02-16T01:17:21;9;9;
73241;PMS5003;65659;49.234;-2.094;2024-02-16T01:19:46;10;10;
73241;PMS5003;65659;49.234;-2.094;2024-02-16T01:22:11;9;9;
73241;PMS5003;65659;49.234;-2.094;2024-02-16T01:24:37;5;5;
73241;PMS5003;65659;49.234;-2.094;2024-02-16T01:27:03;5;4;
73241;PMS5003;65659;49.234;-2.094;2024-02-16T01:29:29;0;0;
73241;PMS5003;65659;49.234;-2.094;2024-02-16T01:31:55;1;1;
73241;PMS5003;65659;49.234;-2.094;2024-02-16T01:34:20;1;1;
73241;PMS5003;65659;49.234;-2.094;2024-02-16T01:36:46;1;1;
73241;PMS5003;65659;49.234;-2.094;2024-02-16T01:39:12;0;0;
73241;PMS5003;65659;49.234;-2.094;2024-02-16T01:41:38;0;0;
73241;PMS5003;65659;49.234;-2.094;2024-02-16T01:44:04;0;0;
73241;PMS5003;65659;49.234;-2.094;2024-02-16T01:46:29;2;1;
73241;PMS5003;65659;49.234;-2.094;2024-02-16T01:48:55;0;0;
73241;PMS5003;65659;49.234;-2.094;2024-02-16T01:51:22;2;0;
73241;PMS5003;65659;49.234;-2.094;2024-02-16T01:53:47;1;1;
73241;PMS5003;65659;49.234;-2.094;2024-02-16T01:56:13;1;1;
73241;PMS5003;65659;49.234;-2.094;2024-02-16T01:58:39;0;0;
73241;PMS5003;65659;49.234;-2.094;2024-02-16T02:01:04;0;0;
73241;PMS5003;65659;49.234;-2.094;2024-02-16T02:03:30;0;0;
73241;PMS5003;65659;49.234;-2.094;2024-02-16T02:05:55;4;4;
73241;PMS5003;65659;49.234;-2.094;2024-02-16T02:08:21;2;2;
73241;PMS5003;65659;49.234;-2.094;2024-02-16T02:10:47;1;1;
73241;PMS5003;65659;49.234;-2.094;2024-02-16T02:13:12;0;0;
73241;PMS5003;65659;49.234;-2.094;2024-02-16T02:15:38;0;0;
73241;PMS5003;65659;49.234;-2.094;2024-02-16T02:18:04;3;2;
73241;PMS5003;65659;49.234;-2.094;2024-02-16T02:20:30;0;0;
73241;PMS5003;65659;49.234;-2.094;2024-02-16T02:22:56;0;0;
73241;PMS5003;65659;49.234;-2.094;2024-02-16T02:25:21;0;0;
73241;PMS5003;65659;49.234;-2.094;2024-02-16T02:27:47;0;0;
73241;PMS5003;65659;49.234;-2.094;2024-02-16T02:30:13;1;0;
73241;PMS5003;65659;49.234;-2.094;2024-02-16T02:32:39;0;0;
73241;PMS5003;65659;49.234;-2.094;2024-02-16T02:35:05;0;0;
73241;PMS5003;65659;49.234;-2.094;2024-02-16T02:37:30;0;0;
73241;PMS5003;65659;49.234;-2.094;2024-02-16T02:39:55;0;0;
73241;PMS5003;65659;49.234;-2.094;2024-02-16T02:42:21;1;0;
73241;PMS5003;65659;49.234;-2.094;2024-02-16T02:44:46;1;1;
73241;PMS5003;65659;49.234;-2.094;2024-02-16T02:47:11;0;0;
73241;PMS5003;65659;49.234;-2.094;2024-02-16T02:49:37;0;0;
73241;PMS5003;65659;49.234;-2.094;2024-02-16T02:52:03;1;1;
73241;PMS5003;65659;49.234;-2.094;2024-02-16T02:54:29;2;2;
73241;PMS5003;65659;49.234;-2.094;2024-02-16T02:56:54;4;3;
73241;PMS5003;65659;49.234;-2.094;2024-02-16T02:59:20;4;4;
73241;PMS5003;65659;49.234;-2.094;2024-02-16T03:01:45;2;2;
73241;PMS5003;65659;49.234;-2.094;2024-02-16T03:04:11;2;2;
73241;PMS5003;65659;49.234;-2.094;2024-02-16T03:06:36;3;3;
73241;PMS5003;65659;49.234;-2.094;2024-02-16T03:09:01;2;2;
73241;PMS5003;65659;49.234;-2.094;2024-02-16T03:11:26;2;1;
73241;PMS5003;65659;49.234;-2.094;2024-02-16T03:13:52;2;2;
73241;PMS5003;65659;49.234;-2.094;2024-02-16T03:16:17;3;3;
73241;PMS5003;65659;49.234;-2.094;2024-02-16T03:18:43;2;2;
73241;PMS5003;65659;49.234;-2.094;2024-02-16T03:21:08;3;2;
73241;PMS5003;65659;49.234;-2.094;2024-02-16T03:23:34;1;1;
73241;PMS5003;65659;49.234;-2.094;2024-02-16T03:25:59;2;2;
73241;PMS5003;65659;49.234;-2.094;2024-02-16T03:28:25;2;1;
73241;PMS5003;65659;49.234;-2.094;2024-02-16T03:30:50;1;1;
73241;PMS5003;65659;49.234;-2.094;2024-02-16T03:33:15;2;2;
73241;PMS5003;65659;49.234;-2.094;2024-02-16T03:35:40;1;1;
73241;PMS5003;65659;49.234;-2.094;2024-02-16T03:38:06;3;2;
73241;PMS5003;65659;49.234;-2.094;2024-02-16T03:40:31;2;2;
73241;PMS5003;65659;49.234;-2.094;2024-02-16T03:42:57;3;3;
73241;PMS5003;65659;49.234;-2.094;2024-02-16T03:45:23;2;2;
73241;PMS5003;65659;49.234;-2.094;2024-02-16T03:47:48;4;4;
73241;PMS5003;65659;49.234;-2.094;2024-02-16T03:50:13;4;4;
73241;PMS5003;65659;49.234;-2.094;2024-02-16T03:52:39;4;4;
73241;PMS5003;65659;49.234;-2.094;2024-02-16T03:55:04;5;4;
73241;PMS5003;65659;49.234;-2.094;2024-02-16T03:57:30;5;4;
73241;PMS5003;65659;49.234;-2.094;2024-02-16T03:59:56;4;4;
73241;PMS5003;65659;49.234;-2.094;2024-02-16T04:02:21;5;5;
73241;PMS5003;65659;49.234;-2.094;2024-02-16T04:04:46;3;3;
73241;PMS5003;65659;49.234;-2.094;2024-02-16T04:07:12;4;4;
73241;PMS5003;65659;49.234;-2.094;2024-02-16T04:09:38;6;6;
73241;PMS5003;65659;49.234;-2.094;2024-02-16T04:12:04;6;5;
73241;PMS5003;65659;49.234;-2.094;2024-02-16T04:14:30;3;2;
73241;PMS5003;65659;49.234;-2.094;2024-02-16T04:16:54;6;6;
73241;PMS5003;65659;49.234;-2.094;2024-02-16T04:19:19;5;4;
73241;PMS5003;65659;49.234;-2.094;2024-02-16T04:21:45;2;2;
73241;PMS5003;65659;49.234;-2.094;2024-02-16T04:24:11;4;4;
73241;PMS5003;65659;49.234;-2.094;2024-02-16T04:26:37;5;5;
73241;PMS5003;65659;49.234;-2.094;2024-02-16T04:29:02;6;6;
73241;PMS5003;65659;49.234;-2.094;2024-02-16T04:31:28;7;7;
73241;PMS5003;65659;49.234;-2.094;2024-02-16T04:33:53;4;3;
73241;PMS5003;65659;49.234;-2.094;2024-02-16T04:36:19;2;1;
73241;PMS5003;65659;49.234;-2.094;2024-02-16T04:38:45;4;3;
73241;PMS5003;65659;49.234;-2.094;2024-02-16T04:41:10;3;2;
73241;PMS5003;65659;49.234;-2.094;2024-02-16T04:43:35;3;3;
73241;PMS5003;65659;49.234;-2.094;2024-02-16T04:46:00;3;3;
73241;PMS5003;65659;49.234;-2.094;2024-02-16T04:48:26;3;2;
73241;PMS5003;65659;49.234;-2.094;2024-02-16T04:50:51;2;2;
73241;PMS5003;65659;49.234;-2.094;2024-02-16T04:53:17;1;1;
73241;PMS5003;65659;49.234;-2.094;2024-02-16T04:55:42;10;7;
73241;PMS5003;65659;49.234;-2.094;2024-02-16T04:58:07;4;3;
73241;PMS5003;65659;49.234;-2.094;2024-02-16T05:00:33;4;3;
73241;PMS5003;65659;49.234;-2.094;2024-02-16T05:02:59;5;3;
73241;PMS5003;65659;49.234;-2.094;2024-02-16T05:05:24;3;3;
73241;PMS5003;65659;49.234;-2.094;2024-02-16T05:07:50;3;3;
73241;PMS5003;65659;49.234;-2.094;2024-02-16T05:10:16;5;3;
73241;PMS5003;65659;49.234;-2.094;2024-02-16T05:12:41;5;3;
73241;PMS5003;65659;49.234;-2.094;2024-02-16T05:15:08;3;3;
73241;PMS5003;65659;49.234;-2.094;2024-02-16T05:17:32;3;3;
73241;PMS5003;65659;49.234;-2.094;2024-02-16T05:19:58;6;5;
73241;PMS5003;65659;49.234;-2.094;2024-02-16T05:22:24;6;4;
73241;PMS5003;65659;49.234;-2.094;2024-02-16T05:24:50;2;2;
73241;PMS5003;65659;49.234;-2.094;2024-02-16T05:27:16;3;3;
73241;PMS5003;65659;49.234;-2.094;2024-02-16T05:29:41;6;4;
73241;PMS5003;65659;49.234;-2.094;2024-02-16T05:32:07;9;7;
73241;PMS5003;65659;49.234;-2.094;2024-02-16T05:34:32;5;4;
73241;PMS5003;65659;49.234;-2.094;2024-02-16T05:36:57;7;6;
73241;PMS5003;65659;49.234;-2.094;2024-02-16T05:39:22;2;2;
73241;PMS5003;65659;49.234;-2.094;2024-02-16T05:41:48;2;2;
73241;PMS5003;65659;49.234;-2.094;2024-02-16T05:44:13;4;4;
73241;PMS5003;65659;49.234;-2.094;2024-02-16T05:46:39;1;1;
73241;PMS5003;65659;49.234;-2.094;2024-02-16T05:49:05;3;3;
73241;PMS5003;65659;49.234;-2.094;2024-02-16T05:51:34;2;1;
73241;PMS5003;65659;49.234;-2.094;2024-02-16T05:53:56;4;3;
73241;PMS5003;65659;49.234;-2.094;2024-02-16T05:56:21;2;2;
73241;PMS5003;65659;49.234;-2.094;2024-02-16T05:58:47;3;2;
73241;PMS5003;65659;49.234;-2.094;2024-02-16T06:01:12;3;3;
73241;PMS5003;65659;49.234;-2.094;2024-02-16T06:03:40;3;2;
73241;PMS5003;65659;49.234;-2.094;2024-02-16T06:06:04;2;2;
73241;PMS5003;65659;49.234;-2.094;2024-02-16T06:08:30;4;2;
73241;PMS5003;65659;49.234;-2.094;2024-02-16T06:10:55;3;3;
73241;PMS5003;65659;49.234;-2.094;2024-02-16T06:13:21;3;3;
73241;PMS5003;65659;49.234;-2.094;2024-02-16T06:15:46;2;2;
73241;PMS5003;65659;49.234;-2.094;2024-02-16T06:18:12;4;4;
73241;PMS5003;65659;49.234;-2.094;2024-02-16T06:20:37;3;2;
73241;PMS5003;65659;49.234;-2.094;2024-02-16T06:23:03;1;1;
73241;PMS5003;65659;49.234;-2.094;2024-02-16T06:25:28;3;3;
73241;PMS5003;65659;49.234;-2.094;2024-02-16T06:27:53;3;2;
73241;PMS5003;65659;49.234;-2.094;2024-02-16T06:30:18;6;4;
73241;PMS5003;65659;49.234;-2.094;2024-02-16T06:32:44;7;6;
73241;PMS5003;65659;49.234;-2.094;2024-02-16T06:35:09;2;2;
73241;PMS5003;65659;49.234;-2.094;2024-02-16T06:37:35;2;1;
73241;PMS5003;65659;49.234;-2.094;2024-02-16T06:40:00;2;2;
73241;PMS5003;65659;49.234;-2.094;2024-02-16T06:42:26;3;3;
73241;PMS5003;65659;49.234;-2.094;2024-02-16T06:44:51;5;5;
73241;PMS5003;65659;49.234;-2.094;2024-02-16T06:47:17;4;4;
73241;PMS5003;65659;49.234;-2.094;2024-02-16T06:49:43;5;4;
73241;PMS5003;65659;49.234;-2.094;2024-02-16T06:52:09;4;4;
73241;PMS5003;65659;49.234;-2.094;2024-02-16T06:54:35;6;5;
73241;PMS5003;65659;49.234;-2.094;2024-02-16T06:57:00;4;3;
73241;PMS5003;65659;49.234;-2.094;2024-02-16T06:59:25;2;2;
73241;PMS5003;65659;49.234;-2.094;2024-02-16T07:01:51;5;5;
73241;PMS5003;65659;49.234;-2.094;2024-02-16T07:04:16;2;2;
73241;PMS5003;65659;49.234;-2.094;2024-02-16T07:06:41;4;4;
73241;PMS5003;65659;49.234;-2.094;2024-02-16T07:09:07;3;3;
73241;PMS5003;65659;49.234;-2.094;2024-02-16T07:11:33;4;3;
73241;PMS5003;65659;49.234;-2.094;2024-02-16T07:13:58;3;2;
73241;PMS5003;65659;49.234;-2.094;2024-02-16T07:16:24;2;2;
73241;PMS5003;65659;49.234;-2.094;2024-02-16T07:18:50;4;3;
73241;PMS5003;65659;49.234;-2.094;2024-02-16T07:21:16;3;2;
73241;PMS5003;65659;49.234;-2.094;2024-02-16T07:23:41;5;5;
73241;PMS5003;65659;49.234;-2.094;2024-02-16T07:26:07;4;4;
73241;PMS5003;65659;49.234;-2.094;2024-02-16T07:28:33;7;3;
73241;PMS5003;65659;49.234;-2.094;2024-02-16T07:30:58;5;4;
73241;PMS5003;65659;49.234;-2.094;2024-02-16T07:33:24;7;6;
73241;PMS5003;65659;49.234;-2.094;2024-02-16T07:35:50;3;3;
73241;PMS5003;65659;49.234;-2.094;2024-02-16T07:38:15;4;2;
73241;PMS5003;65659;49.234;-2.094;2024-02-16T07:40:40;6;5;
73241;PMS5003;65659;49.234;-2.094;2024-02-16T07:43:06;5;3;
73241;PMS5003;65659;49.234;-2.094;2024-02-16T07:45:32;4;3;
73241;PMS5003;65659;49.234;-2.094;2024-02-16T07:47:57;4;3;
73241;PMS5003;65659;49.234;-2.094;2024-02-16T07:50:23;2;2;
73241;PMS5003;65659;49.234;-2.094;2024-02-16T07:52:48;5;4;
73241;PMS5003;65659;49.234;-2.094;2024-02-16T07:55:14;2;2;
73241;PMS5003;65659;49.234;-2.094;2024-02-16T07:57:40;22;22;
73241;PMS5003;65659;49.234;-2.094;2024-02-16T08:00:06;9;8;
73241;PMS5003;65659;49.234;-2.094;2024-02-16T08:02:32;5;3;
73241;PMS5003;65659;49.234;-2.094;2024-02-16T08:04:57;6;6;
73241;PMS5003;65659;49.234;-2.094;2024-02-16T08:07:22;7;6;
73241;PMS5003;65659;49.234;-2.094;2024-02-16T08:09:47;13;12;
73241;PMS5003;65659;49.234;-2.094;2024-02-16T08:12:12;4;4;
73241;PMS5003;65659;49.234;-2.094;2024-02-16T08:14:38;4;4;
73241;PMS5003;65659;49.234;-2.094;2024-02-16T08:17:04;4;4;
73241;PMS5003;65659;49.234;-2.094;2024-02-16T08:19:32;6;5;
73241;PMS5003;65659;49.234;-2.094;2024-02-16T08:21:55;4;4;
73241;PMS5003;65659;49.234;-2.094;2024-02-16T08:24:20;5;4;
73241;PMS5003;65659;49.234;-2.094;2024-02-16T08:26:45;2;2;
73241;PMS5003;65659;49.234;-2.094;2024-02-16T08:29:11;1;1;
73241;PMS5003;65659;49.234;-2.094;2024-02-16T08:31:36;5;4;
73241;PMS5003;65659;49.234;-2.094;2024-02-16T08:34:02;7;6;
73241;PMS5003;65659;49.234;-2.094;2024-02-16T08:36:28;6;5;
73241;PMS5003;65659;49.234;-2.094;2024-02-16T08:38:53;11;10;
73241;PMS5003;65659;49.234;-2.094;2024-02-16T08:41:19;17;16;
73241;PMS5003;65659;49.234;-2.094;2024-02-16T08:43:44;20;19;
73241;PMS5003;65659;49.234;-2.094;2024-02-16T08:46:09;29;28;
73241;PMS5003;65659;49.234;-2.094;2024-02-16T08:48:35;16;16;
73241;PMS5003;65659;49.234;-2.094;2024-02-16T08:51:01;27;26;
73241;PMS5003;65659;49.234;-2.094;2024-02-16T08:53:26;19;18;
73241;PMS5003;65659;49.234;-2.094;2024-02-16T08:55:51;11;10;
73241;PMS5003;65659;49.234;-2.094;2024-02-16T08:58:17;9;9;
73241;PMS5003;65659;49.234;-2.094;2024-02-16T09:00:43;17;16;
73241;PMS5003;65659;49.234;-2.094;2024-02-16T09:03:09;13;12;
73241;PMS5003;65659;49.234;-2.094;2024-02-16T09:08:00;20;18;
73241;PMS5003;65659;49.234;-2.094;2024-02-16T09:10:25;13;10;
73241;PMS5003;65659;49.234;-2.094;2024-02-16T09:12:51;14;14;
73241;PMS5003;65659;49.234;-2.094;2024-02-16T09:15:16;6;5;
73241;PMS5003;65659;49.234;-2.094;2024-02-16T09:17:42;6;6;
73241;PMS5003;65659;49.234;-2.094;2024-02-16T09:20:08;4;3;
73241;PMS5003;65659;49.234;-2.094;2024-02-16T09:22:33;7;7;
73241;PMS5003;65659;49.234;-2.094;2024-02-16T09:24:59;22;21;
73241;PMS5003;65659;49.234;-2.094;2024-02-16T09:27:24;21;20;
73241;PMS5003;65659;49.234;-2.094;2024-02-16T09:29:52;12;12;
73241;PMS5003;65659;49.234;-2.094;2024-02-16T09:32:15;8;8;
73241;PMS5003;65659;49.234;-2.094;2024-02-16T09:34:41;7;6;
73241;PMS5003;65659;49.234;-2.094;2024-02-16T09:37:06;4;3;
73241;PMS5003;65659;49.234;-2.094;2024-02-16T09:39:32;5;4;
73241;PMS5003;65659;49.234;-2.094;2024-02-16T09:41:57;5;4;
73241;PMS5003;65659;49.234;-2.094;2024-02-16T09:44:23;10;10;
73241;PMS5003;65659;49.234;-2.094;2024-02-16T09:46:48;5;5;
73241;PMS5003;65659;49.234;-2.094;2024-02-16T09:49:13;12;11;
73241;PMS5003;65659;49.234;-2.094;2024-02-16T09:51:39;8;7;
73241;PMS5003;65659;49.234;-2.094;2024-02-16T09:54:05;9;9;
73241;PMS5003;65659;49.234;-2.094;2024-02-16T09:56:31;5;4;
73241;PMS5003;65659;49.234;-2.094;2024-02-16T09:58:56;5;5;
73241;PMS5003;65659;49.234;-2.094;2024-02-16T10:01:21;7;7;
73241;PMS5003;65659;49.234;-2.094;2024-02-16T10:03:46;5;5;
73241;PMS5003;65659;49.234;-2.094;2024-02-16T10:06:13;9;9;
73241;PMS5003;65659;49.234;-2.094;2024-02-16T10:11:05;8;8;
73241;PMS5003;65659;49.234;-2.094;2024-02-16T10:13:31;7;7;
73241;PMS5003;65659;49.234;-2.094;2024-02-16T10:18:20;6;6;
73241;PMS5003;65659;49.234;-2.094;2024-02-16T10:20:46;2;2;
73241;PMS5003;65659;49.234;-2.094;2024-02-16T10:23:11;4;4;
73241;PMS5003;65659;49.234;-2.094;2024-02-16T10:25:37;8;7;
73241;PMS5003;65659;49.234;-2.094;2024-02-16T10:28:03;6;6;
73241;PMS5003;65659;49.234;-2.094;2024-02-16T10:30:29;8;7;
73241;PMS5003;65659;49.234;-2.094;2024-02-16T10:32:53;12;11;
73241;PMS5003;65659;49.234;-2.094;2024-02-16T10:35:18;16;15;
73241;PMS5003;65659;49.234;-2.094;2024-02-16T10:37:44;10;9;
73241;PMS5003;65659;49.234;-2.094;2024-02-16T10:40:11;11;11;
73241;PMS5003;65659;49.234;-2.094;2024-02-16T10:42:35;4;3;
73241;PMS5003;65659;49.234;-2.094;2024-02-16T10:45:02;8;7;
73241;PMS5003;65659;49.234;-2.094;2024-02-16T10:47:27;8;7;
73241;PMS5003;65659;49.234;-2.094;2024-02-16T10:49:54;5;5;
73241;PMS5003;65659;49.234;-2.094;2024-02-16T10:52:19;2;2;
73241;PMS5003;65659;49.234;-2.094;2024-02-16T10:54:45;4;3;
73241;PMS5003;65659;49.234;-2.094;2024-02-16T10:57:10;4;3;
73241;PMS5003;65659;49.234;-2.094;2024-02-16T10:59:40;8;7;
73241;PMS5003;65659;49.234;-2.094;2024-02-16T11:02:02;12;11;
73241;PMS5003;65659;49.234;-2.094;2024-02-16T11:06:54;2;2;
73241;PMS5003;65659;49.234;-2.094;2024-02-16T11:09:26;11;11;
73241;PMS5003;65659;49.234;-2.094;2024-02-16T11:14:15;11;10;
73241;PMS5003;65659;49.234;-2.094;2024-02-16T11:19:02;7;6;
73241;PMS5003;65659;49.234;-2.094;2024-02-16T11:21:27;7;6;
73241;PMS5003;65659;49.234;-2.094;2024-02-16T11:23:53;7;6;
73241;PMS5003;65659;49.234;-2.094;2024-02-16T11:26:19;19;18;
73241;PMS5003;65659;49.234;-2.094;2024-02-16T11:28:44;6;5;
73241;PMS5003;65659;49.234;-2.094;2024-02-16T11:31:09;5;5;
73241;PMS5003;65659;49.234;-2.094;2024-02-16T11:33:35;3;3;
73241;PMS5003;65659;49.234;-2.094;2024-02-16T11:36:01;2;2;
73241;PMS5003;65659;49.234;-2.094;2024-02-16T11:38:27;2;2;
73241;PMS5003;65659;49.234;-2.094;2024-02-16T11:40:54;1;1;
73241;PMS5003;65659;49.234;-2.094;2024-02-16T11:43:20;3;3;
73241;PMS5003;65659;49.234;-2.094;2024-02-16T11:45:43;2;1;
73241;PMS5003;65659;49.234;-2.094;2024-02-16T11:48:09;1;1;
73241;PMS5003;65659;49.234;-2.094;2024-02-16T11:50:35;4;4;
73241;PMS5003;65659;49.234;-2.094;2024-02-16T11:53:01;3;3;
73241;PMS5003;65659;49.234;-2.094;2024-02-16T11:55:26;3;2;
73241;PMS5003;65659;49.234;-2.094;2024-02-16T11:57:52;3;3;
73241;PMS5003;65659;49.234;-2.094;2024-02-16T12:00:18;2;2;
73241;PMS5003;65659;49.234;-2.094;2024-02-16T12:02:43;1;1;
73241;PMS5003;65659;49.234;-2.094;2024-02-16T12:05:13;1;1;
73241;PMS5003;65659;49.234;-2.094;2024-02-16T12:07:36;1;1;
73241;PMS5003;65659;49.234;-2.094;2024-02-16T12:10:02;2;2;
73241;PMS5003;65659;49.234;-2.094;2024-02-16T12:12:27;12;12;
73241;PMS5003;65659;49.234;-2.094;2024-02-16T12:14:53;4;4;
73241;PMS5003;65659;49.234;-2.094;2024-02-16T12:17:18;3;2;
73241;PMS5003;65659;49.234;-2.094;2024-02-16T12:19:45;25;24;
73241;PMS5003;65659;49.234;-2.094;2024-02-16T12:22:10;8;8;
73241;PMS5003;65659;49.234;-2.094;2024-02-16T12:24:35;0;0;
73241;PMS5003;65659;49.234;-2.094;2024-02-16T12:27:01;1;1;
73241;PMS5003;65659;49.234;-2.094;2024-02-16T12:29:27;1;1;
73241;PMS5003;65659;49.234;-2.094;2024-02-16T12:31:53;0;0;
73241;PMS5003;65659;49.234;-2.094;2024-02-16T12:34:18;1;1;
73241;PMS5003;65659;49.234;-2.094;2024-02-16T12:36:44;1;1;
73241;PMS5003;65659;49.234;-2.094;2024-02-16T12:39:09;0;0;
73241;PMS5003;65659;49.234;-2.094;2024-02-16T12:41:35;1;1;
73241;PMS5003;65659;49.234;-2.094;2024-02-16T12:44:01;2;2;
73241;PMS5003;65659;49.234;-2.094;2024-02-16T12:46:27;1;0;
73241;PMS5003;65659;49.234;-2.094;2024-02-16T12:48:53;2;2;
73241;PMS5003;65659;49.234;-2.094;2024-02-16T12:51:17;4;3;
73241;PMS5003;65659;49.234;-2.094;2024-02-16T12:53:44;2;2;
73241;PMS5003;65659;49.234;-2.094;2024-02-16T12:56:10;3;3;
73241;PMS5003;65659;49.234;-2.094;2024-02-16T12:58:35;13;13;
73241;PMS5003;65659;49.234;-2.094;2024-02-16T13:01:02;2;2;
73241;PMS5003;65659;49.234;-2.094;2024-02-16T13:03:27;2;2;
73241;PMS5003;65659;49.234;-2.094;2024-02-16T13:05:53;1;1;
73241;PMS5003;65659;49.234;-2.094;2024-02-16T13:08:19;5;4;
73241;PMS5003;65659;49.234;-2.094;2024-02-16T13:10:44;5;5;
73241;PMS5003;65659;49.234;-2.094;2024-02-16T13:13:10;7;7;
73241;PMS5003;65659;49.234;-2.094;2024-02-16T13:15:36;3;3;
73241;PMS5003;65659;49.234;-2.094;2024-02-16T13:18:02;3;3;
73241;PMS5003;65659;49.234;-2.094;2024-02-16T13:20:28;4;4;
73241;PMS5003;65659;49.234;-2.094;2024-02-16T13:22:53;3;3;
73241;PMS5003;65659;49.234;-2.094;2024-02-16T13:25:19;2;2;
73241;PMS5003;65659;49.234;-2.094;2024-02-16T13:27:45;3;3;
73241;PMS5003;65659;49.234;-2.094;2024-02-16T13:30:12;4;3;
73241;PMS5003;65659;49.234;-2.094;2024-02-16T13:32:36;5;4;
73241;PMS5003;65659;49.234;-2.094;2024-02-16T13:35:01;2;1;
73241;PMS5003;65659;49.234;-2.094;2024-02-16T13:37:28;2;2;
73241;PMS5003;65659;49.234;-2.094;2024-02-16T13:39:53;4;4;
73241;PMS5003;65659;49.234;-2.094;2024-02-16T13:42:18;2;2;
73241;PMS5003;65659;49.234;-2.094;2024-02-16T13:44:44;4;3;
73241;PMS5003;65659;49.234;-2.094;2024-02-16T13:47:10;2;1;
73241;PMS5003;65659;49.234;-2.094;2024-02-16T13:49:36;3;3;
73241;PMS5003;65659;49.234;-2.094;2024-02-16T13:52:01;5;5;
73241;PMS5003;65659;49.234;-2.094;2024-02-16T13:54:28;4;3;
73241;PMS5003;65659;49.234;-2.094;2024-02-16T13:56:53;3;3;
73241;PMS5003;65659;49.234;-2.094;2024-02-16T13:59:19;3;3;
73241;PMS5003;65659;49.234;-2.094;2024-02-16T14:01:44;2;2;
73241;PMS5003;65659;49.234;-2.094;2024-02-16T14:04:10;2;2;
73241;PMS5003;65659;49.234;-2.094;2024-02-16T14:06:36;5;4;
73241;PMS5003;65659;49.234;-2.094;2024-02-16T14:09:02;1;1;
73241;PMS5003;65659;49.234;-2.094;2024-02-16T14:11:28;1;1;
73241;PMS5003;65659;49.234;-2.094;2024-02-16T14:13:53;4;3;
73241;PMS5003;65659;49.234;-2.094;2024-02-16T14:16:19;3;3;
73241;PMS5003;65659;49.234;-2.094;2024-02-16T14:18:44;3;2;
73241;PMS5003;65659;49.234;-2.094;2024-02-16T14:21:10;3;3;
73241;PMS5003;65659;49.234;-2.094;2024-02-16T14:23:37;3;2;
73241;PMS5003;65659;49.234;-2.094;2024-02-16T14:26:01;3;3;
73241;PMS5003;65659;49.234;-2.094;2024-02-16T14:28:27;6;4;
73241;PMS5003;65659;49.234;-2.094;2024-02-16T14:30:55;2;2;
73241;PMS5003;65659;49.234;-2.094;2024-02-16T14:33:19;2;2;
73241;PMS5003;65659;49.234;-2.094;2024-02-16T14:35:45;3;3;
73241;PMS5003;65659;49.234;-2.094;2024-02-16T14:38:10;3;2;
73241;PMS5003;65659;49.234;-2.094;2024-02-16T14:40:37;1;1;
73241;PMS5003;65659;49.234;-2.094;2024-02-16T14:43:02;1;1;
73241;PMS5003;65659;49.234;-2.094;2024-02-16T14:45:28;1;1;
73241;PMS5003;65659;49.234;-2.094;2024-02-16T14:47:54;2;2;
73241;PMS5003;65659;49.234;-2.094;2024-02-16T14:50:19;2;2;
73241;PMS5003;65659;49.234;-2.094;2024-02-16T14:52:45;2;2;
73241;PMS5003;65659;49.234;-2.094;2024-02-16T14:55:11;3;3;
73241;PMS5003;65659;49.234;-2.094;2024-02-16T14:57:37;2;2;
73241;PMS5003;65659;49.234;-2.094;2024-02-16T15:00:03;2;2;
73241;PMS5003;65659;49.234;-2.094;2024-02-16T15:02:28;5;3;
73241;PMS5003;65659;49.234;-2.094;2024-02-16T15:04:54;2;1;
73241;PMS5003;65659;49.234;-2.094;2024-02-16T15:07:20;5;4;
73241;PMS5003;65659;49.234;-2.094;2024-02-16T15:09:46;1;1;
73241;PMS5003;65659;49.234;-2.094;2024-02-16T15:12:11;3;2;
73241;PMS5003;65659;49.234;-2.094;2024-02-16T15:14:37;6;6;
73241;PMS5003;65659;49.234;-2.094;2024-02-16T15:17:03;3;3;
73241;PMS5003;65659;49.234;-2.094;2024-02-16T15:19:28;3;3;
73241;PMS5003;65659;49.234;-2.094;2024-02-16T15:21:54;2;2;
73241;PMS5003;65659;49.234;-2.094;2024-02-16T15:24:20;3;2;
73241;PMS5003;65659;49.234;-2.094;2024-02-16T15:26:46;4;4;
73241;PMS5003;65659;49.234;-2.094;2024-02-16T15:29:11;5;2;
73241;PMS5003;65659;49.234;-2.094;2024-02-16T15:31:37;3;2;
73241;PMS5003;65659;49.234;-2.094;2024-02-16T15:34:03;3;3;
73241;PMS5003;65659;49.234;-2.094;2024-02-16T15:36:29;2;1;
73241;PMS5003;65659;49.234;-2.094;2024-02-16T15:38:54;2;1;
73241;PMS5003;65659;49.234;-2.094;2024-02-16T15:41:20;3;2;
73241;PMS5003;65659;49.234;-2.094;2024-02-16T15:43:46;2;2;
73241;PMS5003;65659;49.234;-2.094;2024-02-16T15:46:11;6;6;
73241;PMS5003;65659;49.234;-2.094;2024-02-16T15:48:36;7;7;
73241;PMS5003;65659;49.234;-2.094;2024-02-16T15:51:01;9;7;
73241;PMS5003;65659;49.234;-2.094;2024-02-16T15:53:27;5;5;
73241;PMS5003;65659;49.234;-2.094;2024-02-16T15:55:52;10;9;
73241;PMS5003;65659;49.234;-2.094;2024-02-16T15:58:18;11;11;
73241;PMS5003;65659;49.234;-2.094;2024-02-16T16:00:44;13;12;
73241;PMS5003;65659;49.234;-2.094;2024-02-16T16:03:09;8;8;
73241;PMS5003;65659;49.234;-2.094;2024-02-16T16:05:35;7;6;
73241;PMS5003;65659;49.234;-2.094;2024-02-16T16:08:01;4;3;
73241;PMS5003;65659;49.234;-2.094;2024-02-16T16:10:26;9;9;
73241;PMS5003;65659;49.234;-2.094;2024-02-16T16:12:52;5;4;
73241;PMS5003;65659;49.234;-2.094;2024-02-16T16:15:17;2;2;
73241;PMS5003;65659;49.234;-2.094;2024-02-16T16:17:42;7;7;
73241;PMS5003;65659;49.234;-2.094;2024-02-16T16:20:07;4;4;
73241;PMS5003;65659;49.234;-2.094;2024-02-16T16:22:32;12;11;
73241;PMS5003;65659;49.234;-2.094;2024-02-16T16:24:58;22;21;
73241;PMS5003;65659;49.234;-2.094;2024-02-16T16:27:23;40;38;
73241;PMS5003;65659;49.234;-2.094;2024-02-16T16:29:49;43;41;
73241;PMS5003;65659;49.234;-2.094;2024-02-16T16:32:15;34;29;